<?xml version="1.0" encoding="UTF-8" standalone="no" ?>
<gpx xmlns="http://www.topografix.com/GPX/1/1" xmlns:xsi="http://www.w3.org/2001/XMLSchema-instance" xsi:schemaLocation="http://www.topografix.com/GPX/1/1 http://www.topografix.com/GPX/1/1/gpx.xsd" version="1.1" creator="VisuGPX - https://www.visugpx.com">
  <metadata>
    <name>Éoliennes de Bouloc</name>
  </metadata>
  <wpt lat="44.16699" lon="2.95846">
    <ele>619</ele>
    <name><![CDATA[Parking en bas du village]]></name>
  </wpt>
  <wpt lat="44.16295" lon="2.95569">
    <ele>666</ele>
    <name><![CDATA[Ruelle pavée sur la droite]]></name>
  </wpt>
  <wpt lat="44.168" lon="2.94743">
    <ele>794</ele>
    <name><![CDATA[Petit sentier en face]]></name>
  </wpt>
  <wpt lat="44.16526" lon="2.94133">
    <ele>802</ele>
    <name><![CDATA[D171, à gauche]]></name>
  </wpt>
  <wpt lat="44.15558" lon="2.92113">
    <ele>878</ele>
    <name><![CDATA[Estalane]]></name>
  </wpt>
  <wpt lat="44.15655" lon="2.90766">
    <ele>998</ele>
    <name><![CDATA[Chemin à droite]]></name>
  </wpt>
  <wpt lat="44.16573" lon="2.90115">
    <ele>1092</ele>
    <name><![CDATA[Éoliennes, à droite]]></name>
  </wpt>
  <wpt lat="44.1897" lon="2.92474">
    <ele>1008</ele>
    <name><![CDATA[Croix des Boudets, en face]]></name>
  </wpt>
  <wpt lat="44.18424" lon="2.94154">
    <ele>896</ele>
    <name><![CDATA[Alaret]]></name>
  </wpt>
  <wpt lat="44.17391" lon="2.95535">
    <ele>630</ele>
    <name><![CDATA[Hameau des Landes]]></name>
  </wpt>
  <wpt lat="44.16702" lon="2.95848">
    <ele>619</ele>
    <name><![CDATA[Parking en bas du village]]></name>
  </wpt>
  <trk>
    <name><![CDATA[Éoliennes de Bouloc]]></name>
    <trkseg>
      <trkpt lat="44.16699" lon="2.95846">
        <ele>619</ele>
        <time>2019-10-21T10:13:30+02:00</time>
      </trkpt>
      <trkpt lat="44.16669" lon="2.95779">
        <ele>622</ele>
        <time>2019-10-21T10:13:35+02:00</time>
      </trkpt>
      <trkpt lat="44.16625" lon="2.95781">
        <ele>626</ele>
        <time>2019-10-21T10:13:40+02:00</time>
      </trkpt>
      <trkpt lat="44.1656" lon="2.95792">
        <ele>630</ele>
        <time>2019-10-21T10:13:45+02:00</time>
      </trkpt>
      <trkpt lat="44.1654" lon="2.95801">
        <ele>630</ele>
        <time>2019-10-21T10:13:50+02:00</time>
      </trkpt>
      <trkpt lat="44.16489" lon="2.95801">
        <ele>634</ele>
        <time>2019-10-21T10:13:55+02:00</time>
      </trkpt>
      <trkpt lat="44.16455" lon="2.95786">
        <ele>638</ele>
        <time>2019-10-21T10:14:00+02:00</time>
      </trkpt>
      <trkpt lat="44.16451" lon="2.95758">
        <ele>644</ele>
        <time>2019-10-21T10:14:05+02:00</time>
      </trkpt>
      <trkpt lat="44.16417" lon="2.95721">
        <ele>650</ele>
        <time>2019-10-21T10:14:10+02:00</time>
      </trkpt>
      <trkpt lat="44.16397" lon="2.95708">
        <ele>650</ele>
        <time>2019-10-21T10:14:15+02:00</time>
      </trkpt>
      <trkpt lat="44.16368" lon="2.95713">
        <ele>647</ele>
        <time>2019-10-21T10:14:20+02:00</time>
      </trkpt>
      <trkpt lat="44.16332" lon="2.95644">
        <ele>658</ele>
        <time>2019-10-21T10:14:25+02:00</time>
      </trkpt>
      <trkpt lat="44.16294" lon="2.95614">
        <ele>656</ele>
        <time>2019-10-21T10:14:30+02:00</time>
      </trkpt>
      <trkpt lat="44.16295" lon="2.95569">
        <ele>666</ele>
        <time>2019-10-21T10:14:35+02:00</time>
      </trkpt>
      <trkpt lat="44.16323" lon="2.95571">
        <ele>674</ele>
        <time>2019-10-21T10:14:40+02:00</time>
      </trkpt>
      <trkpt lat="44.16382" lon="2.95556">
        <ele>687</ele>
        <time>2019-10-21T10:14:45+02:00</time>
      </trkpt>
      <trkpt lat="44.16423" lon="2.95554">
        <ele>692</ele>
        <time>2019-10-21T10:14:50+02:00</time>
      </trkpt>
      <trkpt lat="44.16474" lon="2.95524">
        <ele>696</ele>
        <time>2019-10-21T10:14:55+02:00</time>
      </trkpt>
      <trkpt lat="44.165" lon="2.9547">
        <ele>703</ele>
        <time>2019-10-21T10:15:00+02:00</time>
      </trkpt>
      <trkpt lat="44.16503" lon="2.95419">
        <ele>710</ele>
        <time>2019-10-21T10:15:05+02:00</time>
      </trkpt>
      <trkpt lat="44.16497" lon="2.95367">
        <ele>720</ele>
        <time>2019-10-21T10:15:10+02:00</time>
      </trkpt>
      <trkpt lat="44.16523" lon="2.95309">
        <ele>727</ele>
        <time>2019-10-21T10:15:15+02:00</time>
      </trkpt>
      <trkpt lat="44.16548" lon="2.95245">
        <ele>736</ele>
        <time>2019-10-21T10:15:20+02:00</time>
      </trkpt>
      <trkpt lat="44.16589" lon="2.95181">
        <ele>741</ele>
        <time>2019-10-21T10:15:25+02:00</time>
      </trkpt>
      <trkpt lat="44.16659" lon="2.9511">
        <ele>752</ele>
        <time>2019-10-21T10:15:30+02:00</time>
      </trkpt>
      <trkpt lat="44.16726" lon="2.95044">
        <ele>765</ele>
        <time>2019-10-21T10:15:35+02:00</time>
      </trkpt>
      <trkpt lat="44.16791" lon="2.95029">
        <ele>769</ele>
        <time>2019-10-21T10:15:40+02:00</time>
      </trkpt>
      <trkpt lat="44.16865" lon="2.94995">
        <ele>771</ele>
        <time>2019-10-21T10:15:45+02:00</time>
      </trkpt>
      <trkpt lat="44.16877" lon="2.94966">
        <ele>772</ele>
        <time>2019-10-21T10:15:50+02:00</time>
      </trkpt>
      <trkpt lat="44.16846" lon="2.94863">
        <ele>786</ele>
        <time>2019-10-21T10:15:55+02:00</time>
      </trkpt>
      <trkpt lat="44.168" lon="2.94743">
        <ele>794</ele>
        <time>2019-10-21T10:16:00+02:00</time>
      </trkpt>
      <trkpt lat="44.16837" lon="2.94676">
        <ele>801</ele>
        <time>2019-10-21T10:16:05+02:00</time>
      </trkpt>
      <trkpt lat="44.16845" lon="2.9464">
        <ele>804</ele>
        <time>2019-10-21T10:16:10+02:00</time>
      </trkpt>
      <trkpt lat="44.1681" lon="2.94549">
        <ele>807</ele>
        <time>2019-10-21T10:16:15+02:00</time>
      </trkpt>
      <trkpt lat="44.16805" lon="2.94482">
        <ele>810</ele>
        <time>2019-10-21T10:16:20+02:00</time>
      </trkpt>
      <trkpt lat="44.16817" lon="2.94388">
        <ele>812</ele>
        <time>2019-10-21T10:16:25+02:00</time>
      </trkpt>
      <trkpt lat="44.16801" lon="2.94328">
        <ele>809</ele>
        <time>2019-10-21T10:16:30+02:00</time>
      </trkpt>
      <trkpt lat="44.16768" lon="2.94294">
        <ele>804</ele>
        <time>2019-10-21T10:16:35+02:00</time>
      </trkpt>
      <trkpt lat="44.16755" lon="2.94232">
        <ele>805</ele>
        <time>2019-10-21T10:16:40+02:00</time>
      </trkpt>
      <trkpt lat="44.16719" lon="2.9419">
        <ele>808</ele>
        <time>2019-10-21T10:16:45+02:00</time>
      </trkpt>
      <trkpt lat="44.16632" lon="2.94217">
        <ele>800</ele>
        <time>2019-10-21T10:16:50+02:00</time>
      </trkpt>
      <trkpt lat="44.16579" lon="2.9421">
        <ele>803</ele>
        <time>2019-10-21T10:16:55+02:00</time>
      </trkpt>
      <trkpt lat="44.16548" lon="2.94186">
        <ele>803</ele>
        <time>2019-10-21T10:17:00+02:00</time>
      </trkpt>
      <trkpt lat="44.16526" lon="2.94133">
        <ele>802</ele>
        <time>2019-10-21T10:17:05+02:00</time>
      </trkpt>
      <trkpt lat="44.16491" lon="2.94132">
        <ele>798</ele>
        <time>2019-10-21T10:17:10+02:00</time>
      </trkpt>
      <trkpt lat="44.16456" lon="2.94185">
        <ele>795</ele>
        <time>2019-10-21T10:17:15+02:00</time>
      </trkpt>
      <trkpt lat="44.16434" lon="2.94182">
        <ele>793</ele>
        <time>2019-10-21T10:17:20+02:00</time>
      </trkpt>
      <trkpt lat="44.16446" lon="2.94124">
        <ele>793</ele>
        <time>2019-10-21T10:17:25+02:00</time>
      </trkpt>
      <trkpt lat="44.16445" lon="2.94053">
        <ele>789</ele>
        <time>2019-10-21T10:17:30+02:00</time>
      </trkpt>
      <trkpt lat="44.16429" lon="2.94004">
        <ele>784</ele>
        <time>2019-10-21T10:17:35+02:00</time>
      </trkpt>
      <trkpt lat="44.16473" lon="2.93924">
        <ele>788</ele>
        <time>2019-10-21T10:17:40+02:00</time>
      </trkpt>
      <trkpt lat="44.16513" lon="2.93933">
        <ele>792</ele>
        <time>2019-10-21T10:17:45+02:00</time>
      </trkpt>
      <trkpt lat="44.16557" lon="2.93798">
        <ele>802</ele>
        <time>2019-10-21T10:17:50+02:00</time>
      </trkpt>
      <trkpt lat="44.16538" lon="2.93767">
        <ele>806</ele>
        <time>2019-10-21T10:17:55+02:00</time>
      </trkpt>
      <trkpt lat="44.16555" lon="2.93649">
        <ele>814</ele>
        <time>2019-10-21T10:18:00+02:00</time>
      </trkpt>
      <trkpt lat="44.16534" lon="2.93645">
        <ele>819</ele>
        <time>2019-10-21T10:18:05+02:00</time>
      </trkpt>
      <trkpt lat="44.16465" lon="2.93526">
        <ele>835</ele>
        <time>2019-10-21T10:18:10+02:00</time>
      </trkpt>
      <trkpt lat="44.16433" lon="2.93432">
        <ele>844</ele>
        <time>2019-10-21T10:18:15+02:00</time>
      </trkpt>
      <trkpt lat="44.16448" lon="2.93399">
        <ele>846</ele>
        <time>2019-10-21T10:18:20+02:00</time>
      </trkpt>
      <trkpt lat="44.16434" lon="2.9336">
        <ele>849</ele>
        <time>2019-10-21T10:18:25+02:00</time>
      </trkpt>
      <trkpt lat="44.16385" lon="2.93319">
        <ele>852</ele>
        <time>2019-10-21T10:18:30+02:00</time>
      </trkpt>
      <trkpt lat="44.16255" lon="2.93219">
        <ele>868</ele>
        <time>2019-10-21T10:18:35+02:00</time>
      </trkpt>
      <trkpt lat="44.16256" lon="2.93175">
        <ele>872</ele>
        <time>2019-10-21T10:18:40+02:00</time>
      </trkpt>
      <trkpt lat="44.16176" lon="2.93196">
        <ele>874</ele>
        <time>2019-10-21T10:18:45+02:00</time>
      </trkpt>
      <trkpt lat="44.16104" lon="2.93125">
        <ele>878</ele>
        <time>2019-10-21T10:18:50+02:00</time>
      </trkpt>
      <trkpt lat="44.1596" lon="2.92976">
        <ele>878</ele>
        <time>2019-10-21T10:18:55+02:00</time>
      </trkpt>
      <trkpt lat="44.15864" lon="2.92865">
        <ele>880</ele>
        <time>2019-10-21T10:19:00+02:00</time>
      </trkpt>
      <trkpt lat="44.15773" lon="2.92618">
        <ele>877</ele>
        <time>2019-10-21T10:19:05+02:00</time>
      </trkpt>
      <trkpt lat="44.15774" lon="2.92568">
        <ele>876</ele>
        <time>2019-10-21T10:19:10+02:00</time>
      </trkpt>
      <trkpt lat="44.15768" lon="2.9247">
        <ele>877</ele>
        <time>2019-10-21T10:19:15+02:00</time>
      </trkpt>
      <trkpt lat="44.15664" lon="2.92296">
        <ele>876</ele>
        <time>2019-10-21T10:19:20+02:00</time>
      </trkpt>
      <trkpt lat="44.15618" lon="2.92291">
        <ele>872</ele>
        <time>2019-10-21T10:19:25+02:00</time>
      </trkpt>
      <trkpt lat="44.15558" lon="2.92113">
        <ele>878</ele>
        <time>2019-10-21T10:19:30+02:00</time>
      </trkpt>
      <trkpt lat="44.15593" lon="2.92032">
        <ele>887</ele>
        <time>2019-10-21T10:19:35+02:00</time>
      </trkpt>
      <trkpt lat="44.15635" lon="2.92069">
        <ele>892</ele>
        <time>2019-10-21T10:19:40+02:00</time>
      </trkpt>
      <trkpt lat="44.15572" lon="2.91761">
        <ele>919</ele>
        <time>2019-10-21T10:19:45+02:00</time>
      </trkpt>
      <trkpt lat="44.15452" lon="2.91654">
        <ele>915</ele>
        <time>2019-10-21T10:19:50+02:00</time>
      </trkpt>
      <trkpt lat="44.15355" lon="2.91481">
        <ele>934</ele>
        <time>2019-10-21T10:19:55+02:00</time>
      </trkpt>
      <trkpt lat="44.15303" lon="2.91416">
        <ele>938</ele>
        <time>2019-10-21T10:20:00+02:00</time>
      </trkpt>
      <trkpt lat="44.15245" lon="2.91267">
        <ele>948</ele>
        <time>2019-10-21T10:20:05+02:00</time>
      </trkpt>
      <trkpt lat="44.15141" lon="2.91184">
        <ele>950</ele>
        <time>2019-10-21T10:20:10+02:00</time>
      </trkpt>
      <trkpt lat="44.15079" lon="2.90963">
        <ele>958</ele>
        <time>2019-10-21T10:20:15+02:00</time>
      </trkpt>
      <trkpt lat="44.15064" lon="2.90839">
        <ele>959</ele>
        <time>2019-10-21T10:20:20+02:00</time>
      </trkpt>
      <trkpt lat="44.15136" lon="2.90738">
        <ele>966</ele>
        <time>2019-10-21T10:20:25+02:00</time>
      </trkpt>
      <trkpt lat="44.15259" lon="2.90705">
        <ele>975</ele>
        <time>2019-10-21T10:20:30+02:00</time>
      </trkpt>
      <trkpt lat="44.15655" lon="2.90766">
        <ele>998</ele>
        <time>2019-10-21T10:20:35+02:00</time>
      </trkpt>
      <trkpt lat="44.15615" lon="2.90932">
        <ele>1004</ele>
        <time>2019-10-21T10:20:40+02:00</time>
      </trkpt>
      <trkpt lat="44.15601" lon="2.91122">
        <ele>998</ele>
        <time>2019-10-21T10:20:45+02:00</time>
      </trkpt>
      <trkpt lat="44.15733" lon="2.91028">
        <ele>1007</ele>
        <time>2019-10-21T10:20:50+02:00</time>
      </trkpt>
      <trkpt lat="44.15977" lon="2.90711">
        <ele>1047</ele>
        <time>2019-10-21T10:20:55+02:00</time>
      </trkpt>
      <trkpt lat="44.1605" lon="2.90543">
        <ele>1057</ele>
        <time>2019-10-21T10:21:00+02:00</time>
      </trkpt>
      <trkpt lat="44.16287" lon="2.90391">
        <ele>1080</ele>
        <time>2019-10-21T10:21:05+02:00</time>
      </trkpt>
      <trkpt lat="44.16433" lon="2.90195">
        <ele>1098</ele>
        <time>2019-10-21T10:21:10+02:00</time>
      </trkpt>
      <trkpt lat="44.16506" lon="2.90133">
        <ele>1099</ele>
        <time>2019-10-21T10:21:15+02:00</time>
      </trkpt>
      <trkpt lat="44.16573" lon="2.90115">
        <ele>1092</ele>
        <time>2019-10-21T10:21:20+02:00</time>
      </trkpt>
      <trkpt lat="44.1673" lon="2.90359">
        <ele>1091</ele>
        <time>2019-10-21T10:21:25+02:00</time>
      </trkpt>
      <trkpt lat="44.17128" lon="2.90808">
        <ele>1065</ele>
        <time>2019-10-21T10:21:30+02:00</time>
      </trkpt>
      <trkpt lat="44.17441" lon="2.91058">
        <ele>1054</ele>
        <time>2019-10-21T10:21:35+02:00</time>
      </trkpt>
      <trkpt lat="44.17666" lon="2.91144">
        <ele>1063</ele>
        <time>2019-10-21T10:21:40+02:00</time>
      </trkpt>
      <trkpt lat="44.17855" lon="2.91221">
        <ele>1065</ele>
        <time>2019-10-21T10:21:45+02:00</time>
      </trkpt>
      <trkpt lat="44.17922" lon="2.91363">
        <ele>1063</ele>
        <time>2019-10-21T10:21:50+02:00</time>
      </trkpt>
      <trkpt lat="44.17898" lon="2.91509">
        <ele>1061</ele>
        <time>2019-10-21T10:21:55+02:00</time>
      </trkpt>
      <trkpt lat="44.18012" lon="2.91616">
        <ele>1059</ele>
        <time>2019-10-21T10:22:00+02:00</time>
      </trkpt>
      <trkpt lat="44.18079" lon="2.91837">
        <ele>1060</ele>
        <time>2019-10-21T10:22:05+02:00</time>
      </trkpt>
      <trkpt lat="44.18177" lon="2.91982">
        <ele>1056</ele>
        <time>2019-10-21T10:22:10+02:00</time>
      </trkpt>
      <trkpt lat="44.18223" lon="2.92029">
        <ele>1053</ele>
        <time>2019-10-21T10:22:15+02:00</time>
      </trkpt>
      <trkpt lat="44.1831" lon="2.92052">
        <ele>1056</ele>
        <time>2019-10-21T10:22:20+02:00</time>
      </trkpt>
      <trkpt lat="44.1844" lon="2.92184">
        <ele>1047</ele>
        <time>2019-10-21T10:22:25+02:00</time>
      </trkpt>
      <trkpt lat="44.1857" lon="2.9231">
        <ele>1043</ele>
        <time>2019-10-21T10:22:30+02:00</time>
      </trkpt>
      <trkpt lat="44.18631" lon="2.92506">
        <ele>1034</ele>
        <time>2019-10-21T10:22:35+02:00</time>
      </trkpt>
      <trkpt lat="44.18748" lon="2.92604">
        <ele>1019</ele>
        <time>2019-10-21T10:22:40+02:00</time>
      </trkpt>
      <trkpt lat="44.18835" lon="2.92589">
        <ele>1016</ele>
        <time>2019-10-21T10:22:45+02:00</time>
      </trkpt>
      <trkpt lat="44.1897" lon="2.92474">
        <ele>1008</ele>
        <time>2019-10-21T10:22:50+02:00</time>
      </trkpt>
      <trkpt lat="44.18908" lon="2.92644">
        <ele>1009</ele>
        <time>2019-10-21T10:22:55+02:00</time>
      </trkpt>
      <trkpt lat="44.18785" lon="2.92965">
        <ele>980</ele>
        <time>2019-10-21T10:23:00+02:00</time>
      </trkpt>
      <trkpt lat="44.18779" lon="2.93018">
        <ele>978</ele>
        <time>2019-10-21T10:23:05+02:00</time>
      </trkpt>
      <trkpt lat="44.18678" lon="2.93143">
        <ele>966</ele>
        <time>2019-10-21T10:23:10+02:00</time>
      </trkpt>
      <trkpt lat="44.18587" lon="2.9318">
        <ele>963</ele>
        <time>2019-10-21T10:23:15+02:00</time>
      </trkpt>
      <trkpt lat="44.18492" lon="2.93302">
        <ele>960</ele>
        <time>2019-10-21T10:23:20+02:00</time>
      </trkpt>
      <trkpt lat="44.18427" lon="2.93508">
        <ele>950</ele>
        <time>2019-10-21T10:23:25+02:00</time>
      </trkpt>
      <trkpt lat="44.18449" lon="2.93723">
        <ele>941</ele>
        <time>2019-10-21T10:23:30+02:00</time>
      </trkpt>
      <trkpt lat="44.1838" lon="2.93917">
        <ele>913</ele>
        <time>2019-10-21T10:23:35+02:00</time>
      </trkpt>
      <trkpt lat="44.18432" lon="2.94069">
        <ele>906</ele>
        <time>2019-10-21T10:23:40+02:00</time>
      </trkpt>
      <trkpt lat="44.18424" lon="2.94154">
        <ele>896</ele>
        <time>2019-10-21T10:23:45+02:00</time>
      </trkpt>
      <trkpt lat="44.18359" lon="2.94213">
        <ele>886</ele>
        <time>2019-10-21T10:23:50+02:00</time>
      </trkpt>
      <trkpt lat="44.18273" lon="2.94136">
        <ele>876</ele>
        <time>2019-10-21T10:23:55+02:00</time>
      </trkpt>
      <trkpt lat="44.18206" lon="2.94157">
        <ele>865</ele>
        <time>2019-10-21T10:24:00+02:00</time>
      </trkpt>
      <trkpt lat="44.18108" lon="2.9434">
        <ele>841</ele>
        <time>2019-10-21T10:24:05+02:00</time>
      </trkpt>
      <trkpt lat="44.18068" lon="2.94246">
        <ele>832</ele>
        <time>2019-10-21T10:24:10+02:00</time>
      </trkpt>
      <trkpt lat="44.18051" lon="2.94019">
        <ele>835</ele>
        <time>2019-10-21T10:24:15+02:00</time>
      </trkpt>
      <trkpt lat="44.1796" lon="2.94013">
        <ele>813</ele>
        <time>2019-10-21T10:24:20+02:00</time>
      </trkpt>
      <trkpt lat="44.17923" lon="2.94061">
        <ele>796</ele>
        <time>2019-10-21T10:24:25+02:00</time>
      </trkpt>
      <trkpt lat="44.17865" lon="2.94026">
        <ele>787</ele>
        <time>2019-10-21T10:24:30+02:00</time>
      </trkpt>
      <trkpt lat="44.17845" lon="2.93956">
        <ele>790</ele>
        <time>2019-10-21T10:24:35+02:00</time>
      </trkpt>
      <trkpt lat="44.17884" lon="2.93939">
        <ele>805</ele>
        <time>2019-10-21T10:24:40+02:00</time>
      </trkpt>
      <trkpt lat="44.17836" lon="2.93835">
        <ele>808</ele>
        <time>2019-10-21T10:24:45+02:00</time>
      </trkpt>
      <trkpt lat="44.17797" lon="2.93938">
        <ele>792</ele>
        <time>2019-10-21T10:24:50+02:00</time>
      </trkpt>
      <trkpt lat="44.17802" lon="2.94063">
        <ele>772</ele>
        <time>2019-10-21T10:24:55+02:00</time>
      </trkpt>
      <trkpt lat="44.17724" lon="2.94236">
        <ele>754</ele>
        <time>2019-10-21T10:25:00+02:00</time>
      </trkpt>
      <trkpt lat="44.17615" lon="2.94504">
        <ele>740</ele>
        <time>2019-10-21T10:25:05+02:00</time>
      </trkpt>
      <trkpt lat="44.17538" lon="2.94693">
        <ele>718</ele>
        <time>2019-10-21T10:25:10+02:00</time>
      </trkpt>
      <trkpt lat="44.17466" lon="2.94753">
        <ele>715</ele>
        <time>2019-10-21T10:25:15+02:00</time>
      </trkpt>
      <trkpt lat="44.17513" lon="2.94934">
        <ele>690</ele>
        <time>2019-10-21T10:25:20+02:00</time>
      </trkpt>
      <trkpt lat="44.17506" lon="2.95075">
        <ele>681</ele>
        <time>2019-10-21T10:25:25+02:00</time>
      </trkpt>
      <trkpt lat="44.17481" lon="2.95206">
        <ele>663</ele>
        <time>2019-10-21T10:25:30+02:00</time>
      </trkpt>
      <trkpt lat="44.17419" lon="2.95328">
        <ele>646</ele>
        <time>2019-10-21T10:25:35+02:00</time>
      </trkpt>
      <trkpt lat="44.17402" lon="2.9542">
        <ele>633</ele>
        <time>2019-10-21T10:25:40+02:00</time>
      </trkpt>
      <trkpt lat="44.17391" lon="2.95535">
        <ele>630</ele>
        <time>2019-10-21T10:25:45+02:00</time>
      </trkpt>
      <trkpt lat="44.17348" lon="2.95559">
        <ele>628</ele>
        <time>2019-10-21T10:25:50+02:00</time>
      </trkpt>
      <trkpt lat="44.17259" lon="2.95519">
        <ele>630</ele>
        <time>2019-10-21T10:25:55+02:00</time>
      </trkpt>
      <trkpt lat="44.17205" lon="2.95559">
        <ele>633</ele>
        <time>2019-10-21T10:26:00+02:00</time>
      </trkpt>
      <trkpt lat="44.17144" lon="2.95626">
        <ele>629</ele>
        <time>2019-10-21T10:26:05+02:00</time>
      </trkpt>
      <trkpt lat="44.17071" lon="2.95664">
        <ele>629</ele>
        <time>2019-10-21T10:26:10+02:00</time>
      </trkpt>
      <trkpt lat="44.16957" lon="2.9573">
        <ele>632</ele>
        <time>2019-10-21T10:26:15+02:00</time>
      </trkpt>
      <trkpt lat="44.16826" lon="2.95759">
        <ele>636</ele>
        <time>2019-10-21T10:26:20+02:00</time>
      </trkpt>
      <trkpt lat="44.16742" lon="2.95743">
        <ele>629</ele>
        <time>2019-10-21T10:26:25+02:00</time>
      </trkpt>
      <trkpt lat="44.16679" lon="2.9571">
        <ele>629</ele>
        <time>2019-10-21T10:26:30+02:00</time>
      </trkpt>
      <trkpt lat="44.16666" lon="2.95762">
        <ele>623</ele>
        <time>2019-10-21T10:26:35+02:00</time>
      </trkpt>
      <trkpt lat="44.16702" lon="2.95848">
        <ele>619</ele>
        <time>2019-10-21T10:26:40+02:00</time>
      </trkpt>
    </trkseg>
  </trk>
</gpx>